Fork, North Carolina
Current Conditions -  °F | °C
As of 7:54 PM on Monday 20 Oct 2014 (Local Time) from KINT Reporting Station
Clear Clear  
Wind Chill: 63°   Ceiling: Unl
Heat Index: 63°   Visibility: 10mi
Dew Point: 47°   Wind: 5mph
Humidity: 56%   Direction: 190°S
Pressure: 29.99"   Gusts: NA
Location:  36.0107°N, 80.4503°W
Report Text: KINT 202354Z 19004KT 10SM CLR 17/08 A2999 RMK AO2 SLP155 T01720083 10206 20172 53003
Loading
Personal Weather Stations






























Interactive Weather Map
Tropical Storm Tracking
New forecast layout! Learn more

10-Day Weather Forecast

Advertisements
Track Severe Weather on mobile